createdAt,value
2022-12-05T00:01:29.409Z,24.92
2022-12-05T00:03:57.187Z,24.80
2022-12-05T00:06:24.468Z,24.75
2022-12-05T00:08:51.604Z,24.42
2022-12-05T00:11:19.675Z,26.60
2022-12-05T00:13:47.168Z,25.42
2022-12-05T00:16:15.107Z,25.17
2022-12-05T00:18:42.306Z,24.27
2022-12-05T00:21:12.635Z,25.52
2022-12-05T00:23:39.727Z,28.52
2022-12-05T00:26:06.862Z,24.98
2022-12-05T00:28:34.165Z,24.35
2022-12-05T00:31:04.883Z,24.95
2022-12-05T00:33:31.896Z,25.73
2022-12-05T00:36:02.789Z,24.95
2022-12-05T00:38:29.797Z,26.25
2022-12-05T00:40:57.207Z,24.55
2022-12-05T00:43:24.214Z,26.30
2022-12-05T00:45:51.214Z,24.10
2022-12-05T00:48:18.261Z,25.15
2022-12-05T00:50:45.281Z,24.23
2022-12-05T00:53:12.359Z,24.40
2022-12-05T00:55:39.459Z,26.35
2022-12-05T00:58:06.470Z,25.15
2022-12-05T01:00:33.491Z,23.83
2022-12-05T01:03:00.607Z,25.13
2022-12-05T01:05:27.815Z,25.52
2022-12-05T01:07:54.945Z,26.10
2022-12-05T01:10:22.107Z,25.23
2022-12-05T01:12:49.226Z,23.38
2022-12-05T01:15:16.242Z,23.73
2022-12-05T01:17:43.307Z,23.67
2022-12-05T01:20:10.507Z,24.35
2022-12-05T01:22:37.548Z,23.08
2022-12-05T01:25:05.242Z,23.77
2022-12-05T01:27:32.386Z,23.67
2022-12-05T01:29:59.685Z,22.25
2022-12-05T01:32:26.945Z,22.67
2022-12-05T01:34:55.201Z,23.50
2022-12-05T01:37:22.262Z,22.45
2022-12-05T01:39:49.654Z,22.73
2022-12-05T01:42:18.019Z,22.80
2022-12-05T01:44:50.702Z,21.15
2022-12-05T01:47:18.391Z,22.40
2022-12-05T01:49:45.478Z,22.25
2022-12-05T01:52:15.166Z,23.35
2022-12-05T01:54:42.187Z,23.07
2022-12-05T01:57:10.566Z,23.13
2022-12-05T01:59:39.308Z,23.40
2022-12-05T02:02:06.397Z,23.50
2022-12-05T02:04:34.683Z,22.70
2022-12-05T02:07:01.701Z,24.08
2022-12-05T02:09:28.740Z,22.70
2022-12-05T02:11:59.218Z,22.05
2022-12-05T02:14:26.270Z,21.95
2022-12-05T02:17:05.272Z,23.70
2022-12-05T02:19:35.408Z,22.58
2022-12-05T02:22:05.212Z,23.20
2022-12-05T02:24:46.340Z,24.17
2022-12-05T02:27:22.662Z,22.75
2022-12-05T02:30:10.016Z,23.17
2022-12-05T02:32:52.314Z,22.85
2022-12-05T02:35:24.280Z,22.30
2022-12-05T02:38:00.358Z,22.58
2022-12-05T02:40:28.763Z,22.27
2022-12-05T02:43:03.594Z,23.35
2022-12-05T02:45:30.992Z,22.10
2022-12-05T02:47:58.029Z,22.17
2022-12-05T02:50:26.141Z,23.13
2022-12-05T02:52:53.649Z,23.38
2022-12-05T02:55:20.817Z,22.25
2022-12-05T02:57:49.728Z,22.40
2022-12-05T03:00:16.941Z,21.63
2022-12-05T03:02:43.967Z,22.92
2022-12-05T03:05:17.131Z,21.30
2022-12-05T03:07:44.806Z,19.88
2022-12-05T03:10:11.874Z,21.35
2022-12-05T03:12:42.202Z,20.85
2022-12-05T03:15:11.773Z,22.00
2022-12-05T03:17:49.967Z,21.05
2022-12-05T03:20:22.210Z,22.30
2022-12-05T03:22:49.255Z,20.85
2022-12-05T03:25:16.305Z,19.98
2022-12-05T03:28:02.250Z,20.90
2022-12-05T03:30:29.378Z,21.70
2022-12-05T03:33:26.119Z,22.95
2022-12-05T03:36:01.722Z,22.20
2022-12-05T03:38:34.352Z,20.08
2022-12-05T03:41:01.430Z,22.92
2022-12-05T03:43:35.131Z,22.85
2022-12-05T03:46:06.376Z,21.52
2022-12-05T03:48:35.737Z,21.83
2022-12-05T03:51:02.891Z,22.98
2022-12-05T03:53:31.995Z,21.50
2022-12-05T03:56:07.146Z,20.85
2022-12-05T03:58:36.404Z,21.75
2022-12-05T04:01:03.892Z,21.45
2022-12-05T04:03:39.346Z,22.50
2022-12-05T04:06:14.657Z,22.05
2022-12-05T04:08:44.117Z,21.48
2022-12-05T04:11:13.911Z,21.90
2022-12-05T04:13:49.050Z,22.92
2022-12-05T04:16:54.203Z,22.10
2022-12-05T04:19:21.247Z,22.38
2022-12-05T04:21:49.078Z,22.85
2022-12-05T04:24:39.093Z,22.02
2022-12-05T04:27:11.354Z,23.90
2022-12-05T04:29:41.719Z,23.40
2022-12-05T04:32:09.289Z,23.52
2022-12-05T04:34:36.342Z,21.48
2022-12-05T04:37:04.792Z,23.23
2022-12-05T04:39:41.050Z,23.70
2022-12-05T04:42:17.760Z,22.35
2022-12-05T04:44:45.349Z,22.85
2022-12-05T04:47:14.667Z,21.75
2022-12-05T04:49:41.705Z,22.27
2022-12-05T04:52:09.500Z,23.63
2022-12-05T04:54:41.571Z,21.48
2022-12-05T04:57:29.237Z,21.55
2022-12-05T04:59:56.712Z,21.27
2022-12-05T05:02:26.426Z,21.55
2022-12-05T05:04:53.692Z,21.83
2022-12-05T05:07:20.847Z,19.98
2022-12-05T05:09:47.917Z,20.30
2022-12-05T05:12:18.912Z,20.25
2022-12-05T05:14:46.500Z,20.52
2022-12-05T05:17:13.569Z,21.63
2022-12-05T05:19:40.573Z,20.70
2022-12-05T05:22:07.576Z,21.80
2022-12-05T05:24:34.806Z,21.50
2022-12-05T05:27:01.878Z,21.58
2022-12-05T05:29:28.908Z,22.10
2022-12-05T05:31:55.990Z,20.48
2022-12-05T05:34:23.252Z,42.95
2022-12-05T05:36:53.368Z,21.65
2022-12-05T05:39:20.410Z,20.60
2022-12-05T05:41:47.446Z,20.13
2022-12-05T05:44:14.466Z,21.92
2022-12-05T05:46:41.614Z,20.98
2022-12-05T05:49:08.876Z,20.35
2022-12-05T05:51:35.982Z,20.75
2022-12-05T05:54:03.056Z,21.42
2022-12-05T05:56:30.223Z,21.02
2022-12-05T05:58:58.284Z,21.33
2022-12-05T06:01:25.579Z,21.70
2022-12-05T06:03:52.920Z,20.48
2022-12-05T06:06:20.468Z,22.33
2022-12-05T06:08:47.717Z,21.35
2022-12-05T06:11:21.526Z,20.70
2022-12-05T06:13:51.990Z,21.25
2022-12-05T06:16:19.536Z,22.13
2022-12-05T06:18:46.638Z,21.77
2022-12-05T06:21:16.371Z,20.63
2022-12-05T06:23:43.747Z,20.42
2022-12-05T06:26:11.594Z,20.63
2022-12-05T06:28:39.480Z,21.00
2022-12-05T06:31:10.054Z,21.05
2022-12-05T06:33:37.211Z,20.15
2022-12-05T06:36:08.268Z,20.58
2022-12-05T06:38:39.157Z,20.60
2022-12-05T06:41:09.734Z,21.17
2022-12-05T06:43:36.774Z,20.70
2022-12-05T06:46:07.450Z,20.77
2022-12-05T06:48:34.593Z,21.92
2022-12-05T06:51:01.813Z,19.90
2022-12-05T06:53:28.915Z,20.40
2022-12-05T06:55:59.738Z,21.08
2022-12-05T06:58:26.775Z,21.17
2022-12-05T07:01:12.672Z,20.48
2022-12-05T07:03:39.923Z,19.77
2022-12-05T07:06:07.227Z,21.23
2022-12-05T07:08:34.430Z,21.27
2022-12-05T07:11:01.506Z,21.23
2022-12-05T07:13:28.555Z,20.67
2022-12-05T07:15:55.727Z,21.95
2022-12-05T07:18:23.171Z,20.90
2022-12-05T07:21:15.485Z,21.95
2022-12-05T07:23:42.936Z,21.30
2022-12-05T07:26:10.449Z,19.90
2022-12-05T07:28:37.566Z,21.75
2022-12-05T07:31:07.431Z,22.50
2022-12-05T07:33:34.542Z,21.98
2022-12-05T07:36:05.607Z,22.40
2022-12-05T07:38:32.726Z,20.80
2022-12-05T07:40:59.947Z,21.70
2022-12-05T07:43:26.979Z,22.52
2022-12-05T07:45:54.070Z,22.33
2022-12-05T07:48:21.543Z,21.17
2022-12-05T07:50:48.654Z,21.15
2022-12-05T07:53:15.713Z,23.05
2022-12-05T07:55:42.733Z,21.08
2022-12-05T07:58:09.784Z,22.92
2022-12-05T08:00:36.860Z,21.77
2022-12-05T08:03:04.000Z,21.48
2022-12-05T08:05:31.073Z,21.15
2022-12-05T08:07:58.157Z,23.30
2022-12-05T08:10:25.282Z,23.45
2022-12-05T08:12:52.614Z,22.35
2022-12-05T08:15:19.648Z,23.10
2022-12-05T08:17:46.710Z,22.15
2022-12-05T08:20:14.024Z,22.38
2022-12-05T08:22:41.155Z,23.92
2022-12-05T08:25:08.391Z,22.75
2022-12-05T08:27:35.464Z,23.08
2022-12-05T08:30:02.483Z,22.00
2022-12-05T08:32:29.534Z,22.17
2022-12-05T08:34:56.607Z,23.38
2022-12-05T08:37:23.758Z,22.73
2022-12-05T08:39:50.827Z,22.83
2022-12-05T08:42:17.858Z,22.00
2022-12-05T08:44:44.862Z,21.42
2022-12-05T08:47:12.309Z,22.38
2022-12-05T08:49:39.298Z,23.60
2022-12-05T08:52:06.360Z,23.42
2022-12-05T08:54:33.399Z,24.00
2022-12-05T08:57:00.542Z,24.73
2022-12-05T08:59:27.626Z,24.10
2022-12-05T09:01:54.742Z,23.30
2022-12-05T09:04:21.951Z,24.75
2022-12-05T09:06:49.079Z,22.70
2022-12-05T09:09:16.112Z,22.60
2022-12-05T09:11:46.424Z,25.35
2022-12-05T09:16:40.862Z,24.23
2022-12-05T09:19:14.998Z,25.52
2022-12-05T09:21:42.314Z,25.85
2022-12-05T09:24:10.519Z,25.48
2022-12-05T09:26:37.647Z,26.63
2022-12-05T09:29:04.701Z,27.63
2022-12-05T09:31:31.978Z,25.77
2022-12-05T09:33:59.156Z,26.80
2022-12-05T09:36:27.233Z,26.92
2022-12-05T09:38:54.519Z,27.35
2022-12-05T09:42:03.441Z,27.77
2022-12-05T09:44:48.908Z,27.55
2022-12-05T09:47:28.501Z,25.02
2022-12-05T09:50:14.117Z,26.70
2022-12-05T09:53:04.520Z,26.67
2022-12-05T09:55:40.819Z,25.33
2022-12-05T09:58:13.477Z,26.23
2022-12-05T10:00:40.496Z,26.60
2022-12-05T10:03:22.835Z,25.55
2022-12-05T10:06:08.669Z,26.83
2022-12-05T10:08:41.708Z,26.92
2022-12-05T10:11:29.116Z,26.23
2022-12-05T10:13:56.195Z,25.42
2022-12-05T10:16:31.690Z,25.63
2022-12-05T10:19:12.021Z,23.15
2022-12-05T10:21:56.745Z,22.38
2022-12-05T10:24:43.363Z,22.08
2022-12-05T10:27:12.962Z,21.92
2022-12-05T10:29:44.857Z,20.90
2022-12-05T10:32:14.270Z,20.98
2022-12-05T10:34:42.191Z,22.33
2022-12-05T10:37:30.725Z,21.02
2022-12-05T10:39:57.808Z,20.90
2022-12-05T10:42:32.410Z,21.65
2022-12-05T10:45:01.114Z,20.80
2022-12-05T10:47:28.504Z,20.95
2022-12-05T10:49:56.607Z,19.92
2022-12-05T10:52:24.015Z,21.10
2022-12-05T10:54:58.580Z,21.20
2022-12-05T10:57:27.129Z,20.45
2022-12-05T10:59:54.701Z,20.00
2022-12-05T11:02:29.427Z,20.33
2022-12-05T11:04:56.780Z,21.40
2022-12-05T11:07:25.151Z,20.95
2022-12-05T11:09:52.176Z,22.33
2022-12-05T11:12:20.282Z,20.75
2022-12-05T11:14:56.916Z,20.35
2022-12-05T11:17:28.442Z,20.42
2022-12-05T11:19:55.498Z,19.10
2022-12-05T11:22:23.238Z,20.02
2022-12-05T11:24:50.246Z,19.05
2022-12-05T11:27:17.310Z,20.05
2022-12-05T11:29:45.185Z,20.08
2022-12-05T11:32:19.666Z,20.15
2022-12-05T11:34:54.888Z,19.77
2022-12-05T11:37:30.547Z,18.55
2022-12-05T11:39:57.670Z,19.35
2022-12-05T11:42:30.863Z,18.40
2022-12-05T11:45:06.874Z,18.95
2022-12-05T11:47:36.927Z,17.20
2022-12-05T11:50:04.142Z,18.02
2022-12-05T11:52:49.819Z,17.08
2022-12-05T11:55:20.319Z,16.42
2022-12-05T11:57:52.053Z,17.08
2022-12-05T12:00:22.383Z,16.45
2022-12-05T12:02:52.351Z,16.40
2022-12-05T12:05:19.492Z,15.68
2022-12-05T12:07:50.422Z,16.85
2022-12-05T12:10:30.345Z,16.65
2022-12-05T12:13:03.853Z,16.73
2022-12-05T12:15:49.265Z,16.58
2022-12-05T12:18:19.195Z,15.60
2022-12-05T12:20:52.319Z,17.02
2022-12-05T12:23:22.367Z,15.80
2022-12-05T12:26:07.997Z,16.23
2022-12-05T12:28:52.830Z,16.00
2022-12-05T12:31:23.010Z,16.33
2022-12-05T12:33:52.513Z,15.90
